Time;durP1;ratioP1;P1;durP2;ratioP2;P2;SDS_P1;SDS_P2;PMS_P1;PMS_P2;Temp;Humidity;BMP_temperature;BMP_pressure;BME280_temperature;BME280_humidity;BME280_pressure;Samples;Min_cycle;Max_cycle;Signal;HPM_P1;HPM_P2
2023/04/12 00:00:23;;;;;;;6.38;2.40;;;7.20;96.50;;;;;;5090270;28;20508;-67
2023/04/12 00:02:52;;;;;;;17.70;3.33;;;7.20;96.80;;;;;;5090129;28;20101;-67
2023/04/12 00:05:21;;;;;;;8.32;2.92;;;7.30;96.70;;;;;;5089023;28;20063;-67
2023/04/12 00:07:48;;;;;;;5.43;2.30;;;7.30;96.80;;;;;;5092525;28;20096;-66
2023/04/12 00:10:14;;;;;;;8.25;3.17;;;7.30;96.80;;;;;;5093905;28;20123;-67
2023/04/12 00:12:40;;;;;;;9.13;2.60;;;7.40;96.80;;;;;;5094220;28;20016;-66
2023/04/12 00:15:06;;;;;;;9.70;2.58;;;7.50;96.40;;;;;;5094027;28;20028;-66
2023/04/12 00:17:32;;;;;;;6.78;2.53;;;7.40;96.50;;;;;;5093944;28;20108;-66
2023/04/12 00:19:58;;;;;;;8.35;2.75;;;7.40;96.80;;;;;;5093506;28;20102;-66
2023/04/12 00:22:25;;;;;;;10.48;2.65;;;7.40;96.90;;;;;;5093605;28;20036;-65
2023/04/12 00:24:51;;;;;;;11.48;3.17;;;7.40;96.80;;;;;;5094298;28;20020;-68
2023/04/12 00:27:16;;;;;;;7.65;2.78;;;7.40;96.70;;;;;;5092514;28;20315;-67
2023/04/12 00:29:42;;;;;;;8.10;2.67;;;7.40;96.90;;;;;;5093649;28;20024;-66
2023/04/12 00:32:08;;;;;;;8.43;2.60;;;7.40;96.90;;;;;;5093386;28;20058;-66
2023/04/12 00:34:33;;;;;;;11.52;2.47;;;7.40;96.80;;;;;;5093577;28;20036;-65
2023/04/12 00:37:00;;;;;;;7.43;2.53;;;7.50;96.70;;;;;;5093385;28;20515;-66
2023/04/12 00:39:26;;;;;;;8.02;2.40;;;7.60;96.60;;;;;;5093690;28;20085;-66
2023/04/12 00:41:52;;;;;;;9.80;2.63;;;7.50;96.60;;;;;;5093346;28;20036;-66
2023/04/12 00:44:18;;;;;;;6.93;2.60;;;7.50;96.70;;;;;;5093365;28;20669;-65
2023/04/12 00:46:46;;;;;;;6.40;2.20;;;7.40;97.10;;;;;;5093368;28;20047;-67
2023/04/12 00:49:12;;;;;;;11.55;2.45;;;7.40;96.80;;;;;;5093105;28;20107;-67
2023/04/12 00:51:38;;;;;;;9.88;2.80;;;7.40;96.90;;;;;;5093431;28;20124;-66
2023/04/12 00:54:06;;;;;;;10.27;2.38;;;7.40;96.80;;;;;;5093457;28;20028;-66
2023/04/12 00:56:32;;;;;;;;;;;7.50;96.60;;;;;;5093799;28;20070;-66
2023/04/12 00:58:58;;;;;;;10.23;2.10;;;7.60;96.50;;;;;;5093182;28;19954;-66
2023/04/12 01:01:24;;;;;;;5.93;2.05;;;7.50;96.60;;;;;;5093116;28;20043;-67
2023/04/12 01:03:52;;;;;;;5.60;2.25;;;7.50;96.50;;;;;;5093410;28;20085;-67
2023/04/12 01:06:36;;;;;;;9.90;2.50;;;7.60;96.20;;;;;;5092995;28;20028;-67
2023/04/12 01:09:20;;;;;;;5.32;1.88;;;7.50;96.10;;;;;;5092886;28;20521;-66
2023/04/12 01:12:01;;;;;;;5.38;2.10;;;7.50;96.20;;;;;;5092861;28;20028;-66
2023/04/12 01:14:47;;;;;;;7.85;2.13;;;7.50;96.20;;;;;;5091708;28;20036;-66
2023/04/12 01:17:19;;;;;;;8.10;1.98;;;7.40;96.30;;;;;;5092950;28;20086;-67
2023/04/12 01:20:12;;;;;;;5.20;2.05;;;7.50;96.30;;;;;;5091539;28;20059;-66
2023/04/12 01:22:56;;;;;;;8.02;1.80;;;7.50;96.20;;;;;;5092805;28;20032;-67
2023/04/12 01:25:57;;;;;;;3.83;1.83;;;7.40;96.20;;;;;;5092524;28;20032;-68
2023/04/12 01:28:28;;;;;;;3.58;1.75;;;7.40;96.30;;;;;;5092417;28;20040;-66
2023/04/12 01:30:55;;;;;;;5.32;1.67;;;7.40;96.20;;;;;;5092668;28;20056;-66
2023/04/12 01:33:22;;;;;;;5.85;1.65;;;7.50;96.10;;;;;;5092331;28;20028;-66
2023/04/12 01:35:50;;;;;;;48.85;20.42;;;7.50;95.70;;;;;;5084197;28;20462;-67
2023/04/12 01:38:16;;;;;;;23.95;9.02;;;7.50;95.90;;;;;;5071102;28;20107;-68
2023/04/12 01:40:42;;;;;;;5.70;2.38;;;7.40;95.80;;;;;;5071904;28;20182;-67
2023/04/12 01:43:12;;;;;;;10.60;2.17;;;7.40;95.60;;;;;;5071879;28;20446;-66
2023/04/12 01:45:39;;;;;;;3.33;1.50;;;7.40;95.70;;;;;;5072479;28;20106;-66
2023/04/12 01:48:08;;;;;;;6.60;2.03;;;7.40;95.90;;;;;;5072026;28;20424;-66
2023/04/12 01:50:58;;;;;;;10.05;1.60;;;7.40;95.70;;;;;;5071880;28;20044;-67
2023/04/12 01:53:50;;;;;;;7.38;2.20;;;7.50;95.80;;;;;;5071705;28;20131;-67
2023/04/12 01:56:19;;;;;;;9.68;1.77;;;7.50;95.50;;;;;;5071783;28;20079;-66
2023/04/12 01:58:47;;;;;;;3.75;1.55;;;7.40;95.70;;;;;;5071695;28;20181;-68
2023/04/12 02:01:15;;;;;;;8.48;1.90;;;7.40;95.80;;;;;;5071604;28;20373;-67
2023/04/12 02:03:42;;;;;;;7.95;2.92;;;7.50;95.70;;;;;;5072077;28;20443;-67
2023/04/12 02:06:08;;;;;;;3.65;1.42;;;7.60;95.50;;;;;;5070707;28;20366;-67
2023/04/12 02:08:34;;;;;;;5.70;1.67;;;7.60;95.40;;;;;;5070674;28;20431;-66
2023/04/12 02:11:06;;;;;;;7.70;1.63;;;7.50;95.30;;;;;;5071218;28;20029;-66
2023/04/12 02:13:32;;;;;;;9.50;1.70;;;7.50;95.30;;;;;;5071700;28;20039;-66
2023/04/12 02:15:58;;;;;;;3.90;1.75;;;7.60;95.20;;;;;;5070765;28;20025;-68
2023/04/12 02:18:23;;;;;;;5.07;1.33;;;7.70;95.00;;;;;;5071848;28;20470;-68
2023/04/12 02:20:49;;;;;;;6.90;1.15;;;7.60;94.90;;;;;;5070003;28;20047;-67
2023/04/12 02:23:15;;;;;;;3.40;1.10;;;7.60;95.00;;;;;;5070070;28;20048;-66
2023/04/12 02:25:41;;;;;;;4.78;1.70;;;7.60;94.90;;;;;;5070020;28;20194;-65
2023/04/12 02:28:06;;;;;;;2.65;1.23;;;7.50;95.00;;;;;;5071169;28;20028;-66
2023/04/12 02:30:32;;;;;;;5.07;1.48;;;7.70;95.10;;;;;;5071401;28;20036;-66
2023/04/12 02:32:58;;;;;;;6.07;1.70;;;7.60;94.80;;;;;;5071388;28;20459;-67
2023/04/12 02:35:23;;;;;;;4.07;1.20;;;7.50;94.70;;;;;;5071286;28;20033;-67
2023/04/12 02:37:50;;;;;;;7.35;1.17;;;7.50;94.80;;;;;;5071008;28;20033;-67
2023/04/12 02:40:16;;;;;;;5.35;1.38;;;7.50;95.10;;;;;;5071094;28;20020;-66
2023/04/12 02:42:42;;;;;;;3.60;1.23;;;7.60;94.80;;;;;;5071320;28;20472;-67
2023/04/12 02:45:09;;;;;;;3.78;1.60;;;7.60;94.60;;;;;;5070934;28;20028;-66
2023/04/12 02:47:36;;;;;;;14.30;1.80;;;7.60;94.60;;;;;;5071006;28;20027;-67
2023/04/12 02:50:03;;;;;;;3.13;1.40;;;7.50;94.60;;;;;;5070947;28;20492;-66
2023/04/12 02:52:28;;;;;;;5.55;1.40;;;7.60;94.60;;;;;;5070379;28;20028;-67
2023/04/12 02:54:55;;;;;;;5.88;1.17;;;7.60;94.50;;;;;;5070542;28;20461;-66
2023/04/12 02:57:22;;;;;;;9.07;2.05;;;7.60;94.50;;;;;;5069796;28;20029;-66
2023/04/12 02:59:52;;;;;;;5.80;1.45;;;7.70;94.60;;;;;;5071192;28;20059;-66
2023/04/12 03:02:19;;;;;;;6.20;1.75;;;7.70;94.60;;;;;;5069660;28;20028;-66
2023/04/12 03:04:46;;;;;;;4.97;1.50;;;7.70;94.50;;;;;;5070899;28;20029;-66
2023/04/12 03:07:15;;;;;;;4.32;1.30;;;7.70;94.70;;;;;;5069577;28;20438;-66
2023/04/12 03:09:41;;;;;;;5.88;1.30;;;7.60;94.50;;;;;;5071059;28;20372;-67
2023/04/12 03:12:07;;;;;;;6.38;1.50;;;7.70;94.70;;;;;;5070916;28;20123;-66
2023/04/12 03:14:33;;;;;;;5.80;1.50;;;7.70;94.70;;;;;;5070841;28;20378;-67
2023/04/12 03:16:58;;;;;;;3.97;1.30;;;7.70;94.70;;;;;;5070679;28;20047;-67
2023/04/12 03:19:24;;;;;;;9.05;3.92;;;7.70;94.60;;;;;;5069382;28;20036;-66
2023/04/12 03:21:50;;;;;;;5.60;1.15;;;7.80;94.60;;;;;;5070931;28;20070;-67
2023/04/12 03:24:16;;;;;;;4.30;1.48;;;7.80;94.40;;;;;;5070473;28;20032;-66
2023/04/12 03:26:42;;;;;;;6.45;1.13;;;7.80;94.50;;;;;;5070419;28;20036;-66
2023/04/12 03:29:08;;;;;;;6.70;1.40;;;7.70;94.50;;;;;;5069312;28;20122;-66
2023/04/12 03:31:34;;;;;;;7.95;1.30;;;7.80;94.50;;;;;;5070447;28;20086;-66
2023/04/12 03:34:01;;;;;;;6.53;1.63;;;7.90;94.40;;;;;;5070314;28;20040;-67
2023/04/12 03:36:26;;;;;;;11.75;1.45;;;7.90;94.30;;;;;;5070909;28;20040;-67
2023/04/12 03:38:52;;;;;;;4.00;1.45;;;8.00;94.30;;;;;;5070620;28;20362;-66
2023/04/12 03:41:22;;;;;;;2.03;0.95;;;7.90;94.40;;;;;;5070453;28;20047;-67
2023/04/12 03:43:48;;;;;;;5.10;1.63;;;8.00;94.30;;;;;;5073526;28;20425;-66
2023/04/12 03:46:14;;;;;;;4.10;1.20;;;8.00;94.20;;;;;;5074575;28;20047;-67
2023/04/12 03:48:41;;;;;;;6.60;1.38;;;7.90;94.10;;;;;;5074810;28;20028;-67
2023/04/12 03:51:10;;;;;;;5.07;1.40;;;8.00;94.10;;;;;;5074570;28;20533;-66
2023/04/12 03:53:36;;;;;;;6.43;1.05;;;8.00;94.00;;;;;;5074105;28;20044;-67
2023/04/12 03:56:02;;;;;;;7.03;1.33;;;8.00;94.00;;;;;;5073881;28;20056;-67
2023/04/12 03:58:28;;;;;;;5.95;1.40;;;8.10;93.90;;;;;;5073796;28;20124;-66
2023/04/12 04:00:53;;;;;;;9.13;1.58;;;8.20;93.80;;;;;;5074297;28;20436;-66
2023/04/12 04:03:21;;;;;;;11.02;1.30;;;8.10;93.90;;;;;;5074379;28;20067;-67
2023/04/12 04:05:47;;;;;;;8.57;1.98;;;8.10;93.90;;;;;;5072911;28;20033;-67
2023/04/12 04:08:13;;;;;;;5.63;1.17;;;8.20;93.70;;;;;;5073810;28;20035;-67
2023/04/12 04:10:38;;;;;;;4.63;1.20;;;8.20;93.70;;;;;;5073821;28;20356;-67
2023/04/12 04:13:04;;;;;;;5.70;1.80;;;8.30;93.60;;;;;;5073590;28;20020;-67
2023/04/12 04:15:30;;;;;;;6.10;1.52;;;8.20;93.50;;;;;;5073948;28;20031;-67
2023/04/12 04:17:55;;;;;;;7.40;1.52;;;8.20;93.60;;;;;;5073686;28;20055;-67
2023/04/12 04:20:21;;;;;;;5.13;1.17;;;8.10;93.60;;;;;;5073617;28;20481;-67
2023/04/12 04:22:47;;;;;;;6.38;1.20;;;8.20;93.60;;;;;;5073682;28;20469;-66
2023/04/12 04:25:14;;;;;;;7.75;1.45;;;8.20;93.40;;;;;;5073511;28;20507;-67
2023/04/12 04:27:46;;;;;;;7.97;1.60;;;8.30;93.30;;;;;;5072948;28;20016;-66
2023/04/12 04:30:13;;;;;;;6.65;1.38;;;8.20;93.40;;;;;;5073283;28;20425;-67
2023/04/12 04:32:39;;;;;;;5.30;1.30;;;8.30;93.30;;;;;;5072512;28;20044;-67
2023/04/12 04:35:06;;;;;;;5.47;1.00;;;8.20;93.30;;;;;;5073520;28;20033;-67
2023/04/12 04:37:34;;;;;;;2.75;1.40;;;8.30;93.20;;;;;;5073656;28;20059;-67
2023/04/12 04:40:00;;;;;;;;;;;8.30;93.20;;;;;;5073558;28;20029;-66
2023/04/12 04:42:28;;;;;;;6.72;1.20;;;8.30;93.20;;;;;;5072712;28;20162;-67
2023/04/12 04:45:03;;;;;;;;;;;8.30;93.50;;;;;;5073753;28;20150;-66
2023/04/12 04:47:29;;;;;;;2.45;1.10;;;8.30;93.50;;;;;;5073388;28;19998;-67
2023/04/12 04:49:56;;;;;;;7.35;1.48;;;8.40;93.30;;;;;;5073085;28;20028;-66
2023/04/12 04:52:22;;;;;;;9.95;1.50;;;8.40;93.30;;;;;;5071713;28;20025;-67
2023/04/12 04:54:48;;;;;;;5.93;1.30;;;8.30;93.40;;;;;;5073406;28;20073;-67
2023/04/12 04:57:14;;;;;;;5.10;1.25;;;8.40;93.40;;;;;;5072981;28;20044;-67
2023/04/12 04:59:40;;;;;;;6.55;1.90;;;8.30;93.40;;;;;;5073029;28;20028;-68
2023/04/12 05:02:06;;;;;;;4.07;1.13;;;8.30;93.40;;;;;;5072944;28;20033;-67
2023/04/12 05:04:31;;;;;;;6.68;1.42;;;8.40;93.20;;;;;;5072838;28;20277;-68
2023/04/12 05:06:57;;;;;;;4.20;1.45;;;8.40;93.40;;;;;;5073126;28;20029;-67
2023/04/12 05:09:23;;;;;;;9.35;1.65;;;8.50;93.20;;;;;;5073152;28;20037;-66
2023/04/12 05:11:48;;;;;;;5.22;1.50;;;8.40;93.40;;;;;;5072887;28;20099;-66
2023/04/12 05:14:14;;;;;;;7.43;1.63;;;8.50;93.40;;;;;;5073076;28;20056;-66
2023/04/12 05:16:40;;;;;;;12.48;1.60;;;8.60;93.30;;;;;;5072572;28;20112;-67
2023/04/12 05:19:06;;;;;;;7.00;1.45;;;8.50;93.20;;;;;;5071448;28;20551;-67
2023/04/12 05:21:32;;;;;;;4.25;1.20;;;8.50;93.00;;;;;;5072846;28;20048;-69
2023/04/12 05:23:58;;;;;;;3.95;1.10;;;8.60;92.90;;;;;;5072537;28;20035;-66
2023/04/12 05:26:24;;;;;;;6.13;1.15;;;8.70;92.90;;;;;;5072539;28;20029;-66
2023/04/12 05:28:50;;;;;;;3.67;1.08;;;8.80;92.70;;;;;;5072492;28;20369;-66
2023/04/12 05:31:16;;;;;;;12.50;1.48;;;8.80;92.60;;;;;;5072044;28;20158;-65
2023/04/12 05:33:43;;;;;;;4.53;1.10;;;8.90;92.60;;;;;;5073140;28;20045;-65
2023/04/12 05:36:10;;;;;;;10.18;1.20;;;8.90;92.50;;;;;;5072345;28;20036;-66
2023/04/12 05:38:36;;;;;;;4.57;1.30;;;8.90;92.40;;;;;;5071929;28;20028;-66
2023/04/12 05:41:04;;;;;;;9.65;1.65;;;9.00;92.40;;;;;;5070544;28;20040;-67
2023/04/12 05:43:31;;;;;;;7.43;1.50;;;9.00;92.30;;;;;;5071807;28;20078;-67
2023/04/12 05:45:58;;;;;;;8.27;1.40;;;9.00;92.40;;;;;;5071279;28;20028;-66
2023/04/12 05:48:23;;;;;;;2.83;1.15;;;9.00;92.40;;;;;;5072098;28;20067;-66
2023/04/12 05:50:53;;;;;;;3.38;1.17;;;9.10;92.40;;;;;;5071723;28;20461;-66
2023/04/12 05:53:19;;;;;;;6.15;1.00;;;9.10;92.40;;;;;;5071602;28;20497;-65
2023/04/12 05:55:45;;;;;;;5.22;1.25;;;9.10;92.40;;;;;;5071476;28;20044;-65
2023/04/12 05:58:11;;;;;;;5.72;1.40;;;9.30;92.50;;;;;;5071683;28;20036;-65
2023/04/12 06:00:40;;;;;;;8.38;1.95;;;9.20;92.40;;;;;;5070873;28;20048;-65
2023/04/12 06:03:08;;;;;;;5.25;1.27;;;9.30;92.50;;;;;;5071696;28;20036;-66
2023/04/12 06:05:33;;;;;;;5.00;1.73;;;9.40;92.40;;;;;;5070988;28;20060;-64
2023/04/12 06:07:59;;;;;;;4.90;1.40;;;9.30;92.40;;;;;;5071435;28;20462;-66
2023/04/12 06:10:25;;;;;;;2.15;1.10;;;9.40;92.60;;;;;;5071538;28;20036;-65
2023/04/12 06:12:50;;;;;;;10.45;1.77;;;9.50;92.50;;;;;;5071673;28;20024;-66
2023/04/12 06:15:18;;;;;;;7.40;1.80;;;9.50;92.40;;;;;;5071630;28;20446;-65
2023/04/12 06:17:44;;;;;;;5.03;1.27;;;9.60;92.30;;;;;;5071437;28;20174;-65
2023/04/12 06:20:11;;;;;;;9.00;1.40;;;9.70;92.30;;;;;;5071522;28;20521;-65
2023/04/12 06:22:37;;;;;;;5.63;1.30;;;9.80;92.30;;;;;;5070088;28;20079;-65
2023/04/12 06:25:03;;;;;;;3.45;1.20;;;9.90;92.10;;;;;;5070916;28;20032;-66
2023/04/12 06:27:29;;;;;;;12.77;1.50;;;10.00;91.60;;;;;;5071439;28;20317;-65
2023/04/12 06:29:55;;;;;;;9.70;1.50;;;10.00;91.60;;;;;;5071797;28;20032;-65
2023/04/12 06:32:21;;;;;;;4.75;1.30;;;10.20;91.50;;;;;;5069838;28;20041;-66
2023/04/12 06:34:47;;;;;;;6.03;2.17;;;10.30;91.30;;;;;;5071212;28;20170;-66
2023/04/12 06:37:12;;;;;;;4.65;1.25;;;10.40;91.20;;;;;;5070971;28;20033;-68
2023/04/12 06:39:38;;;;;;;4.82;1.15;;;10.50;91.20;;;;;;5071352;28;20036;-67
2023/04/12 06:42:04;;;;;;;6.05;2.03;;;10.70;91.50;;;;;;5071092;28;20028;-68
2023/04/12 06:44:32;;;;;;;4.70;1.25;;;10.70;91.50;;;;;;5071047;28;20107;-68
2023/04/12 06:46:57;;;;;;;6.65;1.35;;;10.80;91.00;;;;;;5070424;28;20029;-69
2023/04/12 06:49:23;;;;;;;6.20;1.40;;;10.80;90.80;;;;;;5070725;28;20032;-68
2023/04/12 06:51:49;;;;;;;5.45;1.02;;;10.90;90.90;;;;;;5070935;28;20028;-67
2023/04/12 06:54:14;;;;;;;6.40;1.33;;;10.80;90.70;;;;;;5070942;28;20036;-66
2023/04/12 06:56:40;;;;;;;11.40;1.38;;;10.90;90.80;;;;;;5071607;28;20028;-68
2023/04/12 06:59:06;;;;;;;3.83;1.10;;;11.00;90.70;;;;;;5071063;28;20426;-68
2023/04/12 07:01:31;;;;;;;6.70;1.23;;;11.00;90.60;;;;;;5069610;28;20453;-69
2023/04/12 07:03:57;;;;;;;7.50;1.25;;;11.10;90.70;;;;;;5071525;28;20024;-69
2023/04/12 07:06:23;;;;;;;5.43;1.33;;;11.10;90.80;;;;;;5071640;28;20028;-69
2023/04/12 07:08:48;;;;;;;7.72;2.45;;;11.10;90.60;;;;;;5070778;28;20086;-68
2023/04/12 07:11:14;;;;;;;13.25;1.92;;;11.10;90.70;;;;;;5070554;28;20032;-68
2023/04/12 07:13:40;;;;;;;5.65;1.88;;;11.10;90.70;;;;;;5071267;28;20028;-68
2023/04/12 07:16:06;;;;;;;5.88;1.48;;;11.20;90.80;;;;;;5070138;28;20104;-69
2023/04/12 07:18:31;;;;;;;7.20;0.98;;;11.20;90.90;;;;;;5070834;28;20021;-69
2023/04/12 07:20:57;;;;;;;4.65;1.10;;;11.30;90.90;;;;;;5071222;28;20414;-70
2023/04/12 07:23:24;;;;;;;4.55;0.90;;;11.20;91.00;;;;;;5071227;28;20170;-72
2023/04/12 07:25:50;;;;;;;4.47;0.90;;;11.30;91.00;;;;;;5071574;28;20051;-68
2023/04/12 07:28:16;;;;;;;5.65;1.48;;;11.30;91.00;;;;;;5080658;28;20016;-71
2023/04/12 07:30:41;;;;;;;5.60;1.40;;;11.30;91.10;;;;;;5092255;28;20365;-68
2023/04/12 07:33:07;;;;;;;4.70;0.88;;;11.40;91.10;;;;;;5091984;28;20373;-68
2023/04/12 07:35:33;;;;;;;8.68;1.35;;;11.40;91.30;;;;;;5091601;28;20189;-69
2023/04/12 07:38:00;;;;;;;3.97;0.98;;;11.40;91.50;;;;;;5091660;28;20112;-71
2023/04/12 07:40:26;;;;;;;4.72;1.52;;;11.50;91.60;;;;;;5091883;28;20116;-70
2023/04/12 07:42:52;;;;;;;7.00;1.58;;;11.50;91.50;;;;;;5093428;28;20458;-70
2023/04/12 07:45:19;;;;;;;5.70;1.75;;;11.70;91.50;;;;;;5090681;28;20065;-70
2023/04/12 07:47:45;;;;;;;2.90;1.17;;;11.70;91.50;;;;;;5091574;28;20052;-69
2023/04/12 07:50:12;;;;;;;7.47;1.55;;;11.80;91.60;;;;;;5090556;28;20032;-71
2023/04/12 07:52:37;;;;;;;4.50;0.80;;;12.00;91.50;;;;;;5093172;28;20024;-68
2023/04/12 07:55:03;;;;;;;5.13;1.33;;;12.20;91.30;;;;;;5090523;28;20109;-70
2023/04/12 07:57:30;;;;;;;7.00;1.10;;;12.50;91.20;;;;;;5091708;28;20024;-72
2023/04/12 07:59:56;;;;;;;7.28;1.10;;;12.90;91.00;;;;;;5092372;28;20032;-71
2023/04/12 08:02:24;;;;;;;3.55;1.35;;;12.80;90.70;;;;;;5093307;28;20029;-73
2023/04/12 08:04:53;;;;;;;2.83;0.93;;;12.80;90.80;;;;;;5091246;28;20032;-72
2023/04/12 08:07:21;;;;;;;2.58;1.27;;;12.80;90.80;;;;;;5089955;28;20474;-71
2023/04/12 08:09:47;;;;;;;4.82;1.17;;;12.70;90.80;;;;;;5091695;28;20036;-71
2023/04/12 08:12:13;;;;;;;3.70;1.00;;;12.60;90.90;;;;;;5090970;28;20024;-70
2023/04/12 08:14:39;;;;;;;5.70;1.02;;;12.60;90.90;;;;;;5091445;28;20507;-72
2023/04/12 08:17:05;;;;;;;7.95;1.40;;;12.60;90.90;;;;;;5091913;28;20036;-70
2023/04/12 08:19:30;;;;;;;3.75;1.20;;;12.60;90.80;;;;;;5091279;28;20032;-68
2023/04/12 08:21:56;;;;;;;7.38;1.27;;;12.50;90.70;;;;;;5092143;28;20032;-71
2023/04/12 08:24:22;;;;;;;4.85;1.10;;;12.40;90.90;;;;;;5091873;28;20047;-69
2023/04/12 08:26:50;;;;;;;7.63;1.77;;;12.50;91.10;;;;;;5090840;28;20462;-69
2023/04/12 08:29:17;;;;;;;3.38;1.05;;;12.50;91.10;;;;;;5094206;28;20028;-70
2023/04/12 08:31:43;;;;;;;6.65;1.15;;;12.50;91.00;;;;;;5094347;28;20060;-71
2023/04/12 08:34:08;;;;;;;5.05;1.45;;;12.40;90.90;;;;;;5095009;28;20085;-70
2023/04/12 08:36:34;;;;;;;11.90;1.70;;;12.50;91.00;;;;;;5094896;28;20117;-70
2023/04/12 08:39:00;;;;;;;6.32;1.48;;;12.50;91.00;;;;;;5094398;28;20507;-70
2023/04/12 08:41:28;;;;;;;3.17;1.10;;;12.50;91.00;;;;;;5094066;28;20546;-71
2023/04/12 08:43:56;;;;;;;4.65;1.27;;;12.50;91.10;;;;;;5095373;28;20089;-72
2023/04/12 08:46:22;;;;;;;6.05;1.40;;;12.20;91.40;;;;;;5094732;28;20032;-70
2023/04/12 08:48:53;;;;;;;3.80;1.25;;;12.10;91.70;;;;;;5095519;28;20024;-72
2023/04/12 08:51:20;;;;;;;3.15;1.38;;;12.00;92.20;;;;;;5094467;28;20032;-70
2023/04/12 08:53:46;;;;;;;3.50;1.10;;;11.90;92.70;;;;;;5093787;28;20085;-71
2023/04/12 08:56:13;;;;;;;4.38;1.20;;;11.80;93.30;;;;;;5095179;28;20461;-70
2023/04/12 08:58:40;;;;;;;7.55;1.20;;;11.80;94.10;;;;;;5094240;28;20044;-70
2023/04/12 09:01:13;;;;;;;5.07;1.23;;;11.60;94.40;;;;;;5094141;28;20095;-70
2023/04/12 09:03:40;;;;;;;6.05;1.95;;;11.60;95.10;;;;;;5093454;28;20032;-72
2023/04/12 09:06:06;;;;;;;5.85;2.42;;;11.50;95.00;;;;;;5094130;28;20431;-71
2023/04/12 09:08:33;;;;;;;5.57;1.30;;;11.50;95.30;;;;;;5092620;28;20039;-70
2023/04/12 09:10:58;;;;;;;7.28;1.00;;;11.40;95.70;;;;;;5092523;28;20032;-71
2023/04/12 09:13:34;;;;;;;5.93;1.33;;;11.30;96.00;;;;;;5093694;28;20476;-70
2023/04/12 09:16:00;;;;;;;3.33;1.10;;;11.30;96.00;;;;;;5093517;28;20473;-69
2023/04/12 09:18:29;;;;;;;6.28;1.58;;;11.40;96.30;;;;;;5094579;28;20399;-72
2023/04/12 09:21:07;;;;;;;4.65;1.40;;;11.30;96.30;;;;;;5093900;28;20032;-70
2023/04/12 09:23:36;;;;;;;4.28;1.55;;;11.20;96.50;;;;;;5093499;28;20047;-70
2023/04/12 09:26:03;;;;;;;5.32;1.25;;;11.20;96.70;;;;;;5093468;28;20124;-71
2023/04/12 09:28:30;;;;;;;5.10;1.20;;;11.10;96.70;;;;;;5093347;28;20028;-70
2023/04/12 09:30:58;;;;;;;2.08;1.35;;;11.10;96.70;;;;;;5092474;28;20131;-71
2023/04/12 09:33:41;;;;;;;12.93;3.83;;;11.10;96.70;;;;;;5093349;28;20044;-70
2023/04/12 09:36:13;;;;;;;2.38;1.65;;;11.10;96.40;;;;;;5093699;28;20358;-72
2023/04/12 09:38:41;;;;;;;8.02;1.73;;;11.10;96.80;;;;;;5093286;28;20032;-73
2023/04/12 09:41:33;;;;;;;3.90;1.27;;;11.10;97.00;;;;;;5091475;28;20044;-73
2023/04/12 09:44:00;;;;;;;10.07;1.60;;;11.10;97.40;;;;;;5091037;28;20157;-71
2023/04/12 09:46:26;;;;;;;4.07;1.30;;;11.20;97.20;;;;;;5093211;28;20374;-73
2023/04/12 09:48:54;;;;;;;8.30;1.80;;;11.10;97.10;;;;;;5093593;28;20117;-71
2023/04/12 09:51:31;;;;;;;9.60;1.40;;;11.10;97.50;;;;;;5091874;28;20028;-72
2023/04/12 09:54:02;;;;;;;4.10;1.27;;;11.20;97.20;;;;;;5092040;28;20020;-73
2023/04/12 09:56:31;;;;;;;6.72;1.60;;;11.30;97.60;;;;;;5091711;28;20516;-72
2023/04/12 09:59:01;;;;;;;6.18;1.40;;;11.20;97.40;;;;;;5093185;28;20032;-71
2023/04/12 10:01:34;;;;;;;3.30;1.40;;;11.00;97.70;;;;;;5093318;28;20047;-73
2023/04/12 10:04:00;;;;;;;4.32;1.75;;;11.10;97.90;;;;;;5091820;28;20031;-70
2023/04/12 10:06:26;;;;;;;3.92;1.45;;;11.10;98.10;;;;;;5092324;28;20135;-69
2023/04/12 10:08:53;;;;;;;4.35;1.48;;;11.10;98.20;;;;;;5092792;28;20060;-69
2023/04/12 10:11:19;;;;;;;5.13;1.98;;;11.10;98.80;;;;;;5091424;28;20040;-69
2023/04/12 10:13:47;;;;;;;3.88;2.25;;;11.10;98.80;;;;;;5092612;28;20039;-69
2023/04/12 10:16:14;;;;;;;;;;;11.20;98.80;;;;;;5093356;28;20027;-70
2023/04/12 10:18:41;;;;;;;4.13;1.27;;;11.20;98.90;;;;;;5092874;28;20313;-69
2023/04/12 10:21:07;;;;;;;3.88;1.33;;;11.20;98.80;;;;;;5092603;28;20127;-67
2023/04/12 10:23:33;;;;;;;4.18;1.30;;;11.20;98.80;;;;;;5092320;28;20028;-70
2023/04/12 10:26:03;;;;;;;7.32;1.70;;;11.30;98.80;;;;;;5092042;28;20036;-69
2023/04/12 10:28:29;;;;;;;7.35;1.27;;;11.30;98.70;;;;;;5092403;28;20024;-69
2023/04/12 10:30:57;;;;;;;8.80;1.73;;;11.30;98.90;;;;;;5092632;28;20085;-69
2023/04/12 10:33:29;;;;;;;2.60;1.05;;;11.30;99.00;;;;;;5092386;28;20036;-70
2023/04/12 10:35:56;;;;;;;4.32;2.75;;;11.30;98.80;;;;;;5092450;28;20036;-70
2023/04/12 10:38:26;;;;;;;6.03;2.58;;;11.40;99.00;;;;;;5092229;28;20081;-71
2023/04/12 10:41:18;;;;;;;3.95;1.45;;;11.30;99.10;;;;;;5091966;28;20032;-71
2023/04/12 10:43:48;;;;;;;5.78;2.20;;;11.30;99.60;;;;;;5092469;28;20146;-71
2023/04/12 10:46:38;;;;;;;4.75;1.55;;;11.30;99.50;;;;;;5092259;28;20032;-73
2023/04/12 10:49:14;;;;;;;6.70;1.30;;;11.40;99.60;;;;;;5091168;28;20469;-71
2023/04/12 10:52:03;;;;;;;5.45;1.48;;;11.40;99.50;;;;;;5091483;28;20040;-72
2023/04/12 10:54:36;;;;;;;4.68;1.00;;;11.40;99.50;;;;;;5091809;28;20040;-71
2023/04/12 10:57:03;;;;;;;3.47;1.27;;;11.40;99.60;;;;;;5090577;28;20084;-72
2023/04/12 10:59:51;;;;;;;6.55;1.70;;;11.40;99.70;;;;;;5092139;28;20425;-78
2023/04/12 11:02:17;;;;;;;8.45;1.70;;;11.30;99.90;;;;;;5086647;28;20084;-73
2023/04/12 11:05:04;;;;;;;3.25;1.27;;;11.40;99.90;;;;;;5070465;28;20055;-72
2023/04/12 11:07:43;;;;;;;4.65;1.83;;;11.50;99.70;;;;;;5071723;28;20044;-71
2023/04/12 11:10:17;;;;;;;4.00;1.30;;;11.40;99.90;;;;;;5071924;28;20028;-71
2023/04/12 11:12:55;;;;;;;5.95;1.60;;;11.30;99.90;;;;;;5072039;28;20374;-70
2023/04/12 11:15:25;;;;;;;5.18;1.48;;;11.30;99.60;;;;;;5071784;28;20029;-72
2023/04/12 11:17:56;;;;;;;6.68;1.30;;;11.30;99.70;;;;;;5071692;28;20032;-71
2023/04/12 11:20:24;;;;;;;9.45;2.08;;;11.30;99.70;;;;;;5071654;28;20409;-72
2023/04/12 11:22:51;;;;;;;5.72;2.10;;;11.30;99.60;;;;;;5071572;28;20032;-72
2023/04/12 11:25:17;;;;;;;3.78;1.83;;;11.30;99.80;;;;;;5070388;28;20020;-71
2023/04/12 11:27:50;;;;;;;6.88;1.73;;;11.30;99.80;;;;;;5071990;28;20017;-72
2023/04/12 11:30:16;;;;;;;1.75;1.02;;;11.30;99.70;;;;;;5071470;28;20090;-71
2023/04/12 11:32:44;;;;;;;4.20;1.25;;;11.30;99.90;;;;;;5071730;28;20055;-72
2023/04/12 11:35:10;;;;;;;5.57;1.50;;;11.40;99.80;;;;;;5071694;28;20033;-71
2023/04/12 11:37:37;;;;;;;3.15;1.15;;;11.40;99.80;;;;;;5071436;28;20032;-70
2023/04/12 11:40:06;;;;;;;4.00;1.35;;;11.40;99.60;;;;;;5070605;28;20032;-72
2023/04/12 11:42:32;;;;;;;4.65;1.50;;;11.50;99.60;;;;;;5071104;28;20353;-70
2023/04/12 11:44:58;;;;;;;3.60;1.20;;;11.50;99.60;;;;;;5070459;28;20037;-72
2023/04/12 11:47:25;;;;;;;6.00;2.03;;;11.50;99.70;;;;;;5069391;28;20032;-73
2023/04/12 11:49:55;;;;;;;2.50;1.25;;;11.50;99.70;;;;;;5070217;28;20047;-71
2023/04/12 11:52:30;;;;;;;3.35;1.33;;;11.50;99.50;;;;;;5070276;28;20045;-73
2023/04/12 11:54:59;;;;;;;4.60;1.17;;;11.60;99.60;;;;;;5069960;28;20021;-70
2023/04/12 11:57:27;;;;;;;4.53;2.38;;;11.60;99.50;;;;;;5070535;28;20055;-72
2023/04/12 11:59:56;;;;;;;5.95;2.45;;;11.60;99.30;;;;;;5070365;28;20428;-72
2023/04/12 12:02:22;;;;;;;2.40;1.33;;;11.60;99.30;;;;;;5069343;28;20029;-69
2023/04/12 12:04:48;;;;;;;2.03;0.88;;;11.60;99.40;;;;;;5073000;28;20425;-70
2023/04/12 12:07:15;;;;;;;2.50;1.10;;;11.60;99.50;;;;;;5073136;28;20016;-71
2023/04/12 12:09:42;;;;;;;2.17;1.05;;;11.70;99.60;;;;;;5074548;28;20647;-71
2023/04/12 12:12:10;;;;;;;3.70;1.40;;;11.70;99.50;;;;;;5073990;28;20111;-70
2023/04/12 12:14:36;;;;;;;;;;;11.70;99.60;;;;;;5074396;28;20037;-69
2023/04/12 12:17:09;;;;;;;3.85;0.95;;;11.80;99.70;;;;;;5073811;28;19912;-69
2023/04/12 12:19:43;;;;;;;2.25;1.00;;;11.80;99.80;;;;;;5072623;28;20032;-67
2023/04/12 12:22:20;;;;;;;4.20;0.90;;;11.80;99.80;;;;;;5073788;28;20027;-69
2023/04/12 12:24:59;;;;;;;5.43;1.10;;;11.70;99.90;;;;;;5074214;28;20028;-71
2023/04/12 12:27:36;;;;;;;2.88;1.05;;;11.80;99.90;;;;;;5073795;28;20039;-75
2023/04/12 12:30:03;;;;;;;3.28;1.02;;;11.80;99.90;;;;;;5072362;28;20024;-71
2023/04/12 12:32:37;;;;;;;3.78;0.95;;;11.80;99.90;;;;;;5073480;28;20048;-72
2023/04/12 12:35:11;;;;;;;1.30;0.77;;;11.90;99.90;;;;;;5073658;28;20461;-71
2023/04/12 12:37:37;;;;;;;3.30;0.98;;;11.90;99.90;;;;;;5073486;28;20037;-69
2023/04/12 12:40:14;;;;;;;2.35;1.08;;;11.90;99.90;;;;;;5073664;28;20351;-70
2023/04/12 12:42:58;;;;;;;2.53;1.27;;;11.90;99.90;;;;;;5072982;28;20020;-72
2023/04/12 12:45:28;;;;;;;3.70;1.00;;;11.90;99.90;;;;;;5072192;28;20049;-71
2023/04/12 12:47:57;;;;;;;2.33;0.90;;;12.00;99.90;;;;;;5073239;28;20028;-72
2023/04/12 12:50:28;;;;;;;8.13;3.15;;;12.00;99.90;;;;;;5072956;28;20098;-71
2023/04/12 12:52:54;;;;;;;5.28;1.55;;;12.00;99.90;;;;;;5073126;28;20105;-72
2023/04/12 12:55:21;;;;;;;2.45;1.00;;;12.00;99.90;;;;;;5072021;28;20123;-71
2023/04/12 12:57:48;;;;;;;2.20;0.90;;;12.00;99.90;;;;;;5073904;28;20031;-71